sensor_id;sensor_type;location;lat;lon;timestamp;P1;durP1;ratioP1;P2;durP2;ratioP2
46815;SDS011;32787;53.316;8.670;2022-11-20T00:01:16;16.15;;;9.77;;
46815;SDS011;32787;53.316;8.670;2022-11-20T00:03:42;15.70;;;9.80;;
46815;SDS011;32787;53.316;8.670;2022-11-20T00:06:09;17.20;;;9.15;;
46815;SDS011;32787;53.316;8.670;2022-11-20T00:08:36;14.30;;;9.05;;
46815;SDS011;32787;53.316;8.670;2022-11-20T00:11:06;16.30;;;9.68;;
46815;SDS011;32787;53.316;8.670;2022-11-20T00:13:33;16.05;;;8.88;;
46815;SDS011;32787;53.316;8.670;2022-11-20T00:16:00;15.75;;;8.55;;
46815;SDS011;32787;53.316;8.670;2022-11-20T00:18:27;14.75;;;8.20;;
46815;SDS011;32787;53.316;8.670;2022-11-20T00:20:53;15.90;;;8.85;;
46815;SDS011;32787;53.316;8.670;2022-11-20T00:23:24;13.93;;;8.00;;
46815;SDS011;32787;53.316;8.670;2022-11-20T00:25:50;18.05;;;9.02;;
46815;SDS011;32787;53.316;8.670;2022-11-20T00:28:16;14.82;;;8.73;;
46815;SDS011;32787;53.316;8.670;2022-11-20T00:30:41;15.05;;;7.97;;
46815;SDS011;32787;53.316;8.670;2022-11-20T00:33:07;14.10;;;7.78;;
46815;SDS011;32787;53.316;8.670;2022-11-20T00:35:32;13.48;;;7.47;;
46815;SDS011;32787;53.316;8.670;2022-11-20T00:37:58;11.45;;;6.88;;
46815;SDS011;32787;53.316;8.670;2022-11-20T00:40:23;12.88;;;6.93;;
46815;SDS011;32787;53.316;8.670;2022-11-20T00:42:49;12.63;;;6.95;;
46815;SDS011;32787;53.316;8.670;2022-11-20T00:45:15;14.63;;;7.97;;
46815;SDS011;32787;53.316;8.670;2022-11-20T00:47:40;12.05;;;7.07;;
46815;SDS011;32787;53.316;8.670;2022-11-20T00:50:06;12.65;;;7.18;;
46815;SDS011;32787;53.316;8.670;2022-11-20T00:52:32;12.70;;;7.03;;
46815;SDS011;32787;53.316;8.670;2022-11-20T00:54:57;15.10;;;7.60;;
46815;SDS011;32787;53.316;8.670;2022-11-20T00:57:23;13.18;;;6.72;;
46815;SDS011;32787;53.316;8.670;2022-11-20T00:59:48;12.65;;;6.57;;
46815;SDS011;32787;53.316;8.670;2022-11-20T01:02:14;11.50;;;6.18;;
46815;SDS011;32787;53.316;8.670;2022-11-20T01:04:41;11.43;;;5.38;;
46815;SDS011;32787;53.316;8.670;2022-11-20T01:07:07;14.50;;;6.72;;
46815;SDS011;32787;53.316;8.670;2022-11-20T01:09:32;11.93;;;5.85;;
46815;SDS011;32787;53.316;8.670;2022-11-20T01:11:58;12.07;;;6.20;;
46815;SDS011;32787;53.316;8.670;2022-11-20T01:14:24;10.98;;;5.78;;
46815;SDS011;32787;53.316;8.670;2022-11-20T01:16:50;11.30;;;5.72;;
46815;SDS011;32787;53.316;8.670;2022-11-20T01:19:20;12.30;;;6.15;;
46815;SDS011;32787;53.316;8.670;2022-11-20T01:21:48;16.00;;;6.82;;
46815;SDS011;32787;53.316;8.670;2022-11-20T01:24:18;13.38;;;7.55;;
46815;SDS011;32787;53.316;8.670;2022-11-20T01:26:46;14.55;;;7.72;;
46815;SDS011;32787;53.316;8.670;2022-11-20T01:29:17;13.38;;;7.03;;
46815;SDS011;32787;53.316;8.670;2022-11-20T01:31:48;13.73;;;7.80;;
46815;SDS011;32787;53.316;8.670;2022-11-20T01:34:14;15.60;;;8.90;;
46815;SDS011;32787;53.316;8.670;2022-11-20T01:36:42;14.35;;;8.50;;
46815;SDS011;32787;53.316;8.670;2022-11-20T01:39:12;15.30;;;8.80;;
46815;SDS011;32787;53.316;8.670;2022-11-20T01:41:40;12.73;;;7.50;;
46815;SDS011;32787;53.316;8.670;2022-11-20T01:44:43;18.23;;;9.13;;
46815;SDS011;32787;53.316;8.670;2022-11-20T01:47:14;19.35;;;10.68;;
46815;SDS011;32787;53.316;8.670;2022-11-20T01:49:46;16.73;;;9.60;;
46815;SDS011;32787;53.316;8.670;2022-11-20T01:53:02;18.02;;;10.35;;
46815;SDS011;32787;53.316;8.670;2022-11-20T01:55:15;20.75;;;11.32;;
46815;SDS011;32787;53.316;8.670;2022-11-20T01:57:45;19.35;;;10.55;;
46815;SDS011;32787;53.316;8.670;2022-11-20T02:00:12;19.60;;;11.10;;
46815;SDS011;32787;53.316;8.670;2022-11-20T02:02:41;24.17;;;12.65;;
46815;SDS011;32787;53.316;8.670;2022-11-20T02:07:50;24.95;;;13.70;;
46815;SDS011;32787;53.316;8.670;2022-11-20T02:10:17;25.02;;;13.95;;
46815;SDS011;32787;53.316;8.670;2022-11-20T02:12:43;24.65;;;14.65;;
46815;SDS011;32787;53.316;8.670;2022-11-20T02:15:28;25.55;;;14.50;;
46815;SDS011;32787;53.316;8.670;2022-11-20T02:17:54;27.98;;;15.40;;
46815;SDS011;32787;53.316;8.670;2022-11-20T02:20:19;29.73;;;14.65;;
46815;SDS011;32787;53.316;8.670;2022-11-20T02:22:48;26.15;;;15.20;;
46815;SDS011;32787;53.316;8.670;2022-11-20T02:25:19;28.58;;;15.60;;
46815;SDS011;32787;53.316;8.670;2022-11-20T02:27:46;29.30;;;15.32;;
46815;SDS011;32787;53.316;8.670;2022-11-20T02:30:12;27.80;;;15.68;;
46815;SDS011;32787;53.316;8.670;2022-11-20T02:32:38;28.70;;;16.30;;
46815;SDS011;32787;53.316;8.670;2022-11-20T02:37:45;25.15;;;14.00;;
46815;SDS011;32787;53.316;8.670;2022-11-20T02:40:13;25.10;;;14.88;;
46815;SDS011;32787;53.316;8.670;2022-11-20T02:42:39;27.83;;;15.52;;
46815;SDS011;32787;53.316;8.670;2022-11-20T02:45:05;25.90;;;15.32;;
46815;SDS011;32787;53.316;8.670;2022-11-20T02:47:31;23.60;;;14.02;;
46815;SDS011;32787;53.316;8.670;2022-11-20T02:49:57;29.30;;;15.30;;
46815;SDS011;32787;53.316;8.670;2022-11-20T02:52:23;27.00;;;15.02;;
46815;SDS011;32787;53.316;8.670;2022-11-20T02:54:50;24.75;;;14.48;;
46815;SDS011;32787;53.316;8.670;2022-11-20T02:57:15;22.85;;;13.88;;
46815;SDS011;32787;53.316;8.670;2022-11-20T02:59:41;28.00;;;15.75;;
46815;SDS011;32787;53.316;8.670;2022-11-20T03:02:07;27.15;;;15.30;;
46815;SDS011;32787;53.316;8.670;2022-11-20T03:04:32;28.73;;;14.82;;
46815;SDS011;32787;53.316;8.670;2022-11-20T03:06:58;25.65;;;14.63;;
46815;SDS011;32787;53.316;8.670;2022-11-20T03:09:24;27.95;;;15.38;;
46815;SDS011;32787;53.316;8.670;2022-11-20T03:11:49;24.08;;;15.43;;
46815;SDS011;32787;53.316;8.670;2022-11-20T03:14:15;23.65;;;13.95;;
46815;SDS011;32787;53.316;8.670;2022-11-20T03:16:40;28.05;;;15.38;;
46815;SDS011;32787;53.316;8.670;2022-11-20T03:19:06;28.05;;;15.23;;
46815;SDS011;32787;53.316;8.670;2022-11-20T03:21:35;24.30;;;14.02;;
46815;SDS011;32787;53.316;8.670;2022-11-20T03:24:01;26.27;;;14.70;;
46815;SDS011;32787;53.316;8.670;2022-11-20T03:26:27;26.77;;;14.48;;
46815;SDS011;32787;53.316;8.670;2022-11-20T03:28:54;26.63;;;14.70;;
46815;SDS011;32787;53.316;8.670;2022-11-20T03:31:22;26.30;;;14.75;;
46815;SDS011;32787;53.316;8.670;2022-11-20T03:33:58;26.77;;;15.38;;
46815;SDS011;32787;53.316;8.670;2022-11-20T03:36:25;26.15;;;14.93;;
46815;SDS011;32787;53.316;8.670;2022-11-20T03:38:52;24.10;;;13.63;;
46815;SDS011;32787;53.316;8.670;2022-11-20T03:41:25;27.88;;;15.48;;
46815;SDS011;32787;53.316;8.670;2022-11-20T03:43:59;28.48;;;15.15;;
46815;SDS011;32787;53.316;8.670;2022-11-20T03:46:26;27.92;;;15.07;;
46815;SDS011;32787;53.316;8.670;2022-11-20T03:48:52;26.77;;;14.23;;
46815;SDS011;32787;53.316;8.670;2022-11-20T03:51:19;27.33;;;14.77;;
46815;SDS011;32787;53.316;8.670;2022-11-20T03:53:47;28.15;;;15.13;;
46815;SDS011;32787;53.316;8.670;2022-11-20T03:56:14;29.63;;;15.02;;
46815;SDS011;32787;53.316;8.670;2022-11-20T03:58:42;29.25;;;15.00;;
46815;SDS011;32787;53.316;8.670;2022-11-20T04:01:10;27.65;;;15.60;;
46815;SDS011;32787;53.316;8.670;2022-11-20T04:03:37;25.45;;;15.20;;
46815;SDS011;32787;53.316;8.670;2022-11-20T04:06:06;28.25;;;15.05;;
46815;SDS011;32787;53.316;8.670;2022-11-20T04:08:35;27.30;;;14.90;;
46815;SDS011;32787;53.316;8.670;2022-11-20T04:11:11;27.80;;;14.85;;
46815;SDS011;32787;53.316;8.670;2022-11-20T04:13:38;27.80;;;14.23;;
46815;SDS011;32787;53.316;8.670;2022-11-20T04:16:05;24.73;;;14.65;;
46815;SDS011;32787;53.316;8.670;2022-11-20T04:18:32;21.08;;;12.75;;
46815;SDS011;32787;53.316;8.670;2022-11-20T04:20:58;28.30;;;14.00;;
46815;SDS011;32787;53.316;8.670;2022-11-20T04:23:24;25.17;;;13.57;;
46815;SDS011;32787;53.316;8.670;2022-11-20T04:25:50;27.40;;;14.38;;
46815;SDS011;32787;53.316;8.670;2022-11-20T04:28:16;25.10;;;12.88;;
46815;SDS011;32787;53.316;8.670;2022-11-20T04:30:42;27.38;;;14.85;;
46815;SDS011;32787;53.316;8.670;2022-11-20T04:33:07;26.33;;;13.93;;
46815;SDS011;32787;53.316;8.670;2022-11-20T04:35:33;26.42;;;14.18;;
46815;SDS011;32787;53.316;8.670;2022-11-20T04:38:00;26.00;;;14.65;;
46815;SDS011;32787;53.316;8.670;2022-11-20T04:40:25;24.88;;;13.65;;
46815;SDS011;32787;53.316;8.670;2022-11-20T04:42:52;22.83;;;13.02;;
46815;SDS011;32787;53.316;8.670;2022-11-20T04:45:17;25.23;;;13.88;;
46815;SDS011;32787;53.316;8.670;2022-11-20T04:47:43;23.42;;;13.80;;
46815;SDS011;32787;53.316;8.670;2022-11-20T04:50:09;23.88;;;12.98;;
46815;SDS011;32787;53.316;8.670;2022-11-20T04:52:34;24.25;;;13.02;;
46815;SDS011;32787;53.316;8.670;2022-11-20T04:55:00;22.67;;;12.50;;
46815;SDS011;32787;53.316;8.670;2022-11-20T04:57:25;27.38;;;14.40;;
46815;SDS011;32787;53.316;8.670;2022-11-20T04:59:51;23.15;;;12.50;;
46815;SDS011;32787;53.316;8.670;2022-11-20T05:02:17;21.02;;;12.63;;
46815;SDS011;32787;53.316;8.670;2022-11-20T05:04:43;24.92;;;13.18;;
46815;SDS011;32787;53.316;8.670;2022-11-20T05:07:08;24.23;;;12.90;;
46815;SDS011;32787;53.316;8.670;2022-11-20T05:09:34;22.88;;;12.82;;
46815;SDS011;32787;53.316;8.670;2022-11-20T05:11:59;21.23;;;11.10;;
46815;SDS011;32787;53.316;8.670;2022-11-20T05:14:25;23.40;;;12.65;;
46815;SDS011;32787;53.316;8.670;2022-11-20T05:16:50;21.58;;;12.15;;
46815;SDS011;32787;53.316;8.670;2022-11-20T05:19:16;21.70;;;12.95;;
46815;SDS011;32787;53.316;8.670;2022-11-20T05:21:42;23.38;;;12.63;;
46815;SDS011;32787;53.316;8.670;2022-11-20T05:24:07;23.38;;;12.48;;
46815;SDS011;32787;53.316;8.670;2022-11-20T05:26:33;20.60;;;12.13;;
46815;SDS011;32787;53.316;8.670;2022-11-20T05:28:58;24.88;;;13.55;;
46815;SDS011;32787;53.316;8.670;2022-11-20T05:31:24;25.50;;;12.82;;
46815;SDS011;32787;53.316;8.670;2022-11-20T05:33:50;22.77;;;12.23;;
46815;SDS011;32787;53.316;8.670;2022-11-20T05:36:16;22.48;;;12.43;;
46815;SDS011;32787;53.316;8.670;2022-11-20T05:38:42;21.13;;;11.93;;
46815;SDS011;32787;53.316;8.670;2022-11-20T05:41:13;21.88;;;11.70;;
46815;SDS011;32787;53.316;8.670;2022-11-20T05:43:41;22.45;;;11.77;;
46815;SDS011;32787;53.316;8.670;2022-11-20T05:46:09;21.27;;;11.88;;
46815;SDS011;32787;53.316;8.670;2022-11-20T05:48:37;23.10;;;12.25;;
46815;SDS011;32787;53.316;8.670;2022-11-20T05:51:03;21.75;;;11.55;;
46815;SDS011;32787;53.316;8.670;2022-11-20T05:53:31;20.70;;;11.13;;
46815;SDS011;32787;53.316;8.670;2022-11-20T05:58:28;21.85;;;12.18;;
46815;SDS011;32787;53.316;8.670;2022-11-20T06:00:54;19.58;;;11.75;;
46815;SDS011;32787;53.316;8.670;2022-11-20T06:03:20;19.52;;;10.90;;
46815;SDS011;32787;53.316;8.670;2022-11-20T06:05:45;21.83;;;12.27;;
46815;SDS011;32787;53.316;8.670;2022-11-20T06:08:11;23.92;;;11.15;;
46815;SDS011;32787;53.316;8.670;2022-11-20T06:10:37;22.23;;;12.30;;
46815;SDS011;32787;53.316;8.670;2022-11-20T06:13:02;23.75;;;12.23;;
46815;SDS011;32787;53.316;8.670;2022-11-20T06:15:28;27.73;;;13.35;;
46815;SDS011;32787;53.316;8.670;2022-11-20T06:17:54;25.38;;;11.45;;
46815;SDS011;32787;53.316;8.670;2022-11-20T06:20:20;25.00;;;11.20;;
46815;SDS011;32787;53.316;8.670;2022-11-20T06:22:47;18.33;;;10.85;;
46815;SDS011;32787;53.316;8.670;2022-11-20T06:25:12;19.67;;;11.13;;
46815;SDS011;32787;53.316;8.670;2022-11-20T06:27:38;21.75;;;11.18;;
46815;SDS011;32787;53.316;8.670;2022-11-20T06:30:04;19.15;;;10.77;;
46815;SDS011;32787;53.316;8.670;2022-11-20T06:32:30;23.52;;;10.93;;
46815;SDS011;32787;53.316;8.670;2022-11-20T06:34:56;20.27;;;10.48;;
46815;SDS011;32787;53.316;8.670;2022-11-20T06:37:21;20.77;;;11.48;;
46815;SDS011;32787;53.316;8.670;2022-11-20T06:39:47;19.10;;;10.70;;
46815;SDS011;32787;53.316;8.670;2022-11-20T06:42:13;18.80;;;10.32;;
46815;SDS011;32787;53.316;8.670;2022-11-20T06:44:38;16.52;;;10.10;;
46815;SDS011;32787;53.316;8.670;2022-11-20T06:47:04;19.50;;;10.82;;
46815;SDS011;32787;53.316;8.670;2022-11-20T06:49:29;19.45;;;10.77;;
46815;SDS011;32787;53.316;8.670;2022-11-20T06:51:55;19.83;;;10.07;;
46815;SDS011;32787;53.316;8.670;2022-11-20T06:54:21;18.33;;;10.63;;
46815;SDS011;32787;53.316;8.670;2022-11-20T06:56:47;18.30;;;11.05;;
46815;SDS011;32787;53.316;8.670;2022-11-20T06:59:13;20.77;;;11.07;;
46815;SDS011;32787;53.316;8.670;2022-11-20T07:01:38;19.10;;;10.70;;
46815;SDS011;32787;53.316;8.670;2022-11-20T07:04:04;17.30;;;9.85;;
46815;SDS011;32787;53.316;8.670;2022-11-20T07:06:30;19.75;;;10.60;;
46815;SDS011;32787;53.316;8.670;2022-11-20T07:08:55;19.60;;;11.25;;
46815;SDS011;32787;53.316;8.670;2022-11-20T07:11:22;20.17;;;9.80;;
46815;SDS011;32787;53.316;8.670;2022-11-20T07:13:48;17.70;;;9.70;;
46815;SDS011;32787;53.316;8.670;2022-11-20T07:16:14;18.83;;;11.15;;
46815;SDS011;32787;53.316;8.670;2022-11-20T07:18:40;19.95;;;10.43;;
46815;SDS011;32787;53.316;8.670;2022-11-20T07:21:06;19.63;;;10.68;;
46815;SDS011;32787;53.316;8.670;2022-11-20T07:23:34;21.73;;;10.73;;
46815;SDS011;32787;53.316;8.670;2022-11-20T07:26:07;20.25;;;11.00;;
46815;SDS011;32787;53.316;8.670;2022-11-20T07:28:34;18.80;;;10.45;;
46815;SDS011;32787;53.316;8.670;2022-11-20T07:31:00;17.23;;;9.65;;
46815;SDS011;32787;53.316;8.670;2022-11-20T07:33:26;19.38;;;10.35;;
46815;SDS011;32787;53.316;8.670;2022-11-20T07:35:52;18.95;;;10.50;;
46815;SDS011;32787;53.316;8.670;2022-11-20T07:38:17;17.02;;;9.40;;
46815;SDS011;32787;53.316;8.670;2022-11-20T07:40:43;19.40;;;10.00;;
46815;SDS011;32787;53.316;8.670;2022-11-20T07:43:09;19.13;;;9.90;;
46815;SDS011;32787;53.316;8.670;2022-11-20T07:45:34;16.02;;;9.90;;
46815;SDS011;32787;53.316;8.670;2022-11-20T07:48:00;15.82;;;9.50;;
46815;SDS011;32787;53.316;8.670;2022-11-20T07:50:26;19.35;;;10.13;;
46815;SDS011;32787;53.316;8.670;2022-11-20T07:52:51;19.42;;;8.68;;
46815;SDS011;32787;53.316;8.670;2022-11-20T07:55:17;17.27;;;8.90;;
46815;SDS011;32787;53.316;8.670;2022-11-20T07:57:43;15.75;;;8.85;;
46815;SDS011;32787;53.316;8.670;2022-11-20T08:00:10;16.48;;;8.88;;
46815;SDS011;32787;53.316;8.670;2022-11-20T08:02:36;15.55;;;8.70;;
46815;SDS011;32787;53.316;8.670;2022-11-20T08:05:06;15.05;;;8.73;;
46815;SDS011;32787;53.316;8.670;2022-11-20T08:07:37;19.27;;;9.68;;
46815;SDS011;32787;53.316;8.670;2022-11-20T08:10:03;16.33;;;8.73;;
46815;SDS011;32787;53.316;8.670;2022-11-20T08:12:28;15.95;;;8.90;;
46815;SDS011;32787;53.316;8.670;2022-11-20T08:15:13;14.52;;;8.15;;
46815;SDS011;32787;53.316;8.670;2022-11-20T08:17:38;15.65;;;8.60;;
46815;SDS011;32787;53.316;8.670;2022-11-20T08:20:04;15.73;;;8.52;;
46815;SDS011;32787;53.316;8.670;2022-11-20T08:22:30;13.68;;;8.20;;
46815;SDS011;32787;53.316;8.670;2022-11-20T08:24:56;16.13;;;8.30;;
46815;SDS011;32787;53.316;8.670;2022-11-20T08:27:22;16.45;;;8.63;;
46815;SDS011;32787;53.316;8.670;2022-11-20T08:29:47;16.05;;;8.60;;
46815;SDS011;32787;53.316;8.670;2022-11-20T08:32:13;14.88;;;9.55;;
46815;SDS011;32787;53.316;8.670;2022-11-20T08:34:39;14.95;;;8.60;;
46815;SDS011;32787;53.316;8.670;2022-11-20T08:37:04;16.15;;;8.18;;
46815;SDS011;32787;53.316;8.670;2022-11-20T08:39:30;17.17;;;8.95;;
46815;SDS011;32787;53.316;8.670;2022-11-20T08:41:55;16.63;;;9.18;;
46815;SDS011;32787;53.316;8.670;2022-11-20T08:44:21;15.27;;;8.27;;
46815;SDS011;32787;53.316;8.670;2022-11-20T08:46:46;16.85;;;8.73;;
46815;SDS011;32787;53.316;8.670;2022-11-20T08:49:14;16.48;;;8.27;;
46815;SDS011;32787;53.316;8.670;2022-11-20T08:51:40;14.93;;;8.73;;
46815;SDS011;32787;53.316;8.670;2022-11-20T08:54:07;15.55;;;8.63;;
46815;SDS011;32787;53.316;8.670;2022-11-20T08:56:33;16.88;;;9.30;;
46815;SDS011;32787;53.316;8.670;2022-11-20T08:58:58;18.27;;;8.90;;
46815;SDS011;32787;53.316;8.670;2022-11-20T09:01:24;18.00;;;9.45;;
46815;SDS011;32787;53.316;8.670;2022-11-20T09:03:51;14.90;;;8.85;;
46815;SDS011;32787;53.316;8.670;2022-11-20T09:06:16;17.08;;;9.65;;
46815;SDS011;32787;53.316;8.670;2022-11-20T09:08:43;16.35;;;9.50;;
46815;SDS011;32787;53.316;8.670;2022-11-20T09:11:09;17.10;;;9.43;;
46815;SDS011;32787;53.316;8.670;2022-11-20T09:13:35;15.60;;;9.05;;
46815;SDS011;32787;53.316;8.670;2022-11-20T09:16:03;15.80;;;8.93;;
46815;SDS011;32787;53.316;8.670;2022-11-20T09:18:33;17.67;;;9.05;;
46815;SDS011;32787;53.316;8.670;2022-11-20T09:21:02;17.00;;;9.27;;
46815;SDS011;32787;53.316;8.670;2022-11-20T09:23:33;17.08;;;8.25;;
46815;SDS011;32787;53.316;8.670;2022-11-20T09:26:04;17.77;;;9.30;;
46815;SDS011;32787;53.316;8.670;2022-11-20T09:28:30;17.70;;;10.35;;
46815;SDS011;32787;53.316;8.670;2022-11-20T09:30:57;22.77;;;10.98;;
46815;SDS011;32787;53.316;8.670;2022-11-20T09:33:23;17.88;;;10.07;;
46815;SDS011;32787;53.316;8.670;2022-11-20T09:35:48;19.55;;;11.75;;
46815;SDS011;32787;53.316;8.670;2022-11-20T09:38:14;16.77;;;9.63;;
46815;SDS011;32787;53.316;8.670;2022-11-20T09:40:43;17.60;;;9.60;;
46815;SDS011;32787;53.316;8.670;2022-11-20T09:43:51;18.02;;;9.65;;
46815;SDS011;32787;53.316;8.670;2022-11-20T09:46:17;17.15;;;9.48;;
46815;SDS011;32787;53.316;8.670;2022-11-20T09:51:58;14.93;;;8.73;;
46815;SDS011;32787;53.316;8.670;2022-11-20T09:57:28;15.30;;;8.75;;
46815;SDS011;32787;53.316;8.670;2022-11-20T10:00:01;15.95;;;8.90;;
46815;SDS011;32787;53.316;8.670;2022-11-20T10:02:47;14.88;;;9.00;;
46815;SDS011;32787;53.316;8.670;2022-11-20T10:05:21;15.57;;;8.90;;
46815;SDS011;32787;53.316;8.670;2022-11-20T10:08:02;17.65;;;9.02;;
46815;SDS011;32787;53.316;8.670;2022-11-20T10:10:42;18.45;;;9.18;;
46815;SDS011;32787;53.316;8.670;2022-11-20T10:18:48;18.33;;;9.55;;
46815;SDS011;32787;53.316;8.670;2022-11-20T10:24:35;16.05;;;8.32;;
46815;SDS011;32787;53.316;8.670;2022-11-20T10:29:32;22.17;;;11.02;;
46815;SDS011;32787;53.316;8.670;2022-11-20T10:32:03;21.35;;;10.93;;
46815;SDS011;32787;53.316;8.670;2022-11-20T10:42:42;20.40;;;11.73;;
46815;SDS011;32787;53.316;8.670;2022-11-20T10:45:21;21.90;;;10.90;;
46815;SDS011;32787;53.316;8.670;2022-11-20T10:47:56;18.25;;;10.27;;
46815;SDS011;32787;53.316;8.670;2022-11-20T10:50:26;17.98;;;9.18;;
46815;SDS011;32787;53.316;8.670;2022-11-20T10:53:01;16.25;;;9.57;;
46815;SDS011;32787;53.316;8.670;2022-11-20T11:01:39;17.58;;;9.13;;
46815;SDS011;32787;53.316;8.670;2022-11-20T11:04:07;19.70;;;10.25;;
46815;SDS011;32787;53.316;8.670;2022-11-20T11:06:47;15.98;;;8.77;;
46815;SDS011;32787;53.316;8.670;2022-11-20T11:09:16;18.05;;;9.57;;
46815;SDS011;32787;53.316;8.670;2022-11-20T11:11:46;17.73;;;9.75;;
46815;SDS011;32787;53.316;8.670;2022-11-20T11:14:12;19.52;;;10.55;;
46815;SDS011;32787;53.316;8.670;2022-11-20T11:16:49;22.20;;;10.60;;
46815;SDS011;32787;53.316;8.670;2022-11-20T11:19:20;18.10;;;10.57;;
46815;SDS011;32787;53.316;8.670;2022-11-20T11:21:46;21.90;;;12.00;;
46815;SDS011;32787;53.316;8.670;2022-11-20T11:24:23;18.60;;;11.15;;
46815;SDS011;32787;53.316;8.670;2022-11-20T11:26:51;19.10;;;10.98;;
46815;SDS011;32787;53.316;8.670;2022-11-20T11:29:19;20.02;;;12.07;;
46815;SDS011;32787;53.316;8.670;2022-11-20T11:31:45;21.52;;;12.82;;
46815;SDS011;32787;53.316;8.670;2022-11-20T11:34:12;18.63;;;11.40;;
46815;SDS011;32787;53.316;8.670;2022-11-20T11:36:42;19.73;;;11.43;;
46815;SDS011;32787;53.316;8.670;2022-11-20T11:39:18;19.45;;;11.60;;
46815;SDS011;32787;53.316;8.670;2022-11-20T11:41:44;20.15;;;11.32;;
46815;SDS011;32787;53.316;8.670;2022-11-20T11:44:15;18.98;;;11.23;;
46815;SDS011;32787;53.316;8.670;2022-11-20T11:47:01;17.13;;;10.60;;
46815;SDS011;32787;53.316;8.670;2022-11-20T11:49:28;19.05;;;10.30;;
46815;SDS011;32787;53.316;8.670;2022-11-20T11:52:05;18.85;;;10.20;;
46815;SDS011;32787;53.316;8.670;2022-11-20T11:57:23;17.50;;;10.52;;
46815;SDS011;32787;53.316;8.670;2022-11-20T12:00:13;20.20;;;11.38;;
46815;SDS011;32787;53.316;8.670;2022-11-20T12:05:57;19.10;;;11.60;;
46815;SDS011;32787;53.316;8.670;2022-11-20T12:10:43;17.98;;;11.05;;
46815;SDS011;32787;53.316;8.670;2022-11-20T12:13:30;21.25;;;11.50;;
46815;SDS011;32787;53.316;8.670;2022-11-20T12:16:03;23.00;;;11.68;;
46815;SDS011;32787;53.316;8.670;2022-11-20T12:18:29;21.13;;;12.68;;
46815;SDS011;32787;53.316;8.670;2022-11-20T12:29:06;17.45;;;10.35;;
46815;SDS011;32787;53.316;8.670;2022-11-20T12:35:00;20.13;;;12.13;;
46815;SDS011;32787;53.316;8.670;2022-11-20T12:46:08;20.98;;;11.82;;
46815;SDS011;32787;53.316;8.670;2022-11-20T12:54:27;22.65;;;12.65;;
46815;SDS011;32787;53.316;8.670;2022-11-20T13:00:30;23.83;;;14.02;;
46815;SDS011;32787;53.316;8.670;2022-11-20T13:05:48;24.75;;;14.55;;
46815;SDS011;32787;53.316;8.670;2022-11-20T13:08:39;25.02;;;14.65;;
46815;SDS011;32787;53.316;8.670;2022-11-20T13:18:47;22.05;;;13.02;;
46815;SDS011;32787;53.316;8.670;2022-11-20T13:21:16;23.92;;;13.65;;
46815;SDS011;32787;53.316;8.670;2022-11-20T13:23:46;22.27;;;12.77;;
46815;SDS011;32787;53.316;8.670;2022-11-20T13:26:22;23.40;;;12.85;;
46815;SDS011;32787;53.316;8.670;2022-11-20T13:28:59;19.60;;;11.85;;
46815;SDS011;32787;53.316;8.670;2022-11-20T13:31:28;20.15;;;11.65;;
46815;SDS011;32787;53.316;8.670;2022-11-20T13:33:56;19.77;;;11.23;;
46815;SDS011;32787;53.316;8.670;2022-11-20T13:36:25;19.63;;;11.60;;
46815;SDS011;32787;53.316;8.670;2022-11-20T13:38:53;19.15;;;11.23;;
46815;SDS011;32787;53.316;8.670;2022-11-20T13:41:27;19.63;;;11.65;;
46815;SDS011;32787;53.316;8.670;2022-11-20T13:46:38;20.27;;;12.07;;
46815;SDS011;32787;53.316;8.670;2022-11-20T13:49:09;20.42;;;11.50;;
46815;SDS011;32787;53.316;8.670;2022-11-20T14:01:57;18.90;;;11.07;;
46815;SDS011;32787;53.316;8.670;2022-11-20T14:04:26;19.60;;;11.43;;
46815;SDS011;32787;53.316;8.670;2022-11-20T14:06:55;19.75;;;10.18;;
46815;SDS011;32787;53.316;8.670;2022-11-20T14:09:26;16.48;;;10.48;;
46815;SDS011;32787;53.316;8.670;2022-11-20T14:11:53;18.20;;;9.82;;
46815;SDS011;32787;53.316;8.670;2022-11-20T14:14:20;18.17;;;10.25;;
46815;SDS011;32787;53.316;8.670;2022-11-20T14:16:48;17.63;;;10.10;;
46815;SDS011;32787;53.316;8.670;2022-11-20T14:21:50;20.17;;;10.15;;
46815;SDS011;32787;53.316;8.670;2022-11-20T14:24:21;19.15;;;11.15;;
46815;SDS011;32787;53.316;8.670;2022-11-20T14:26:49;19.85;;;10.85;;
46815;SDS011;32787;53.316;8.670;2022-11-20T14:29:16;19.88;;;10.77;;
46815;SDS011;32787;53.316;8.670;2022-11-20T14:31:44;19.25;;;11.05;;
46815;SDS011;32787;53.316;8.670;2022-11-20T14:34:14;21.27;;;11.68;;
46815;SDS011;32787;53.316;8.670;2022-11-20T14:36:48;20.27;;;11.05;;
46815;SDS011;32787;53.316;8.670;2022-11-20T14:39:20;19.35;;;11.55;;
46815;SDS011;32787;53.316;8.670;2022-11-20T14:41:53;19.90;;;11.40;;
46815;SDS011;32787;53.316;8.670;2022-11-20T14:44:36;19.02;;;10.77;;
46815;SDS011;32787;53.316;8.670;2022-11-20T14:47:02;19.52;;;11.13;;
46815;SDS011;32787;53.316;8.670;2022-11-20T14:49:29;24.00;;;12.23;;
46815;SDS011;32787;53.316;8.670;2022-11-20T14:51:59;22.20;;;11.73;;
46815;SDS011;32787;53.316;8.670;2022-11-20T14:54:27;18.92;;;11.40;;
46815;SDS011;32787;53.316;8.670;2022-11-20T14:56:58;23.20;;;13.20;;
46815;SDS011;32787;53.316;8.670;2022-11-20T14:59:32;25.73;;;13.60;;
46815;SDS011;32787;53.316;8.670;2022-11-20T15:01:59;26.25;;;13.60;;
46815;SDS011;32787;53.316;8.670;2022-11-20T15:04:30;21.45;;;12.23;;
46815;SDS011;32787;53.316;8.670;2022-11-20T15:06:56;25.25;;;13.85;;
46815;SDS011;32787;53.316;8.670;2022-11-20T15:09:23;22.13;;;11.98;;
46815;SDS011;32787;53.316;8.670;2022-11-20T15:11:56;19.67;;;12.10;;
46815;SDS011;32787;53.316;8.670;2022-11-20T15:14:24;24.05;;;12.85;;
46815;SDS011;32787;53.316;8.670;2022-11-20T15:16:51;24.15;;;13.50;;
46815;SDS011;32787;53.316;8.670;2022-11-20T15:19:24;22.50;;;12.35;;
46815;SDS011;32787;53.316;8.670;2022-11-20T15:21:51;22.30;;;12.82;;
46815;SDS011;32787;53.316;8.670;2022-11-20T15:24:17;22.73;;;13.50;;
46815;SDS011;32787;53.316;8.670;2022-11-20T15:26:43;22.77;;;12.85;;
46815;SDS011;32787;53.316;8.670;2022-11-20T15:29:13;32.78;;;15.93;;
46815;SDS011;32787;53.316;8.670;2022-11-20T15:31:43;42.28;;;20.38;;
46815;SDS011;32787;53.316;8.670;2022-11-20T15:34:16;43.75;;;20.55;;
46815;SDS011;32787;53.316;8.670;2022-11-20T15:36:42;30.42;;;17.13;;
46815;SDS011;32787;53.316;8.670;2022-11-20T15:39:08;39.13;;;16.67;;
46815;SDS011;32787;53.316;8.670;2022-11-20T15:41:35;29.75;;;15.10;;
46815;SDS011;32787;53.316;8.670;2022-11-20T15:44:01;30.80;;;15.20;;
46815;SDS011;32787;53.316;8.670;2022-11-20T15:46:28;34.75;;;20.90;;
46815;SDS011;32787;53.316;8.670;2022-11-20T15:48:59;39.28;;;20.92;;
46815;SDS011;32787;53.316;8.670;2022-11-20T15:53:55;31.95;;;18.55;;
46815;SDS011;32787;53.316;8.670;2022-11-20T15:56:22;34.67;;;17.95;;
46815;SDS011;32787;53.316;8.670;2022-11-20T15:58:48;36.17;;;19.75;;
46815;SDS011;32787;53.316;8.670;2022-11-20T16:01:15;30.98;;;17.25;;
46815;SDS011;32787;53.316;8.670;2022-11-20T16:03:43;32.03;;;17.40;;
46815;SDS011;32787;53.316;8.670;2022-11-20T16:06:09;28.95;;;17.63;;
46815;SDS011;32787;53.316;8.670;2022-11-20T16:08:34;28.63;;;15.68;;
46815;SDS011;32787;53.316;8.670;2022-11-20T16:11:00;30.67;;;17.52;;
46815;SDS011;32787;53.316;8.670;2022-11-20T16:13:26;32.20;;;17.73;;
46815;SDS011;32787;53.316;8.670;2022-11-20T16:16:18;27.30;;;15.30;;
46815;SDS011;32787;53.316;8.670;2022-11-20T16:18:50;28.40;;;14.50;;